createdAt,value
2023-10-26T00:01:18.760Z,11.49
2023-10-26T00:03:47.039Z,11.50
2023-10-26T00:06:15.303Z,11.53
2023-10-26T00:08:43.434Z,11.56
2023-10-26T00:11:11.678Z,11.58
2023-10-26T00:13:39.581Z,11.61
2023-10-26T00:16:07.670Z,11.62
2023-10-26T00:18:35.754Z,11.61
2023-10-26T00:21:03.970Z,11.62
2023-10-26T00:23:31.945Z,11.64
2023-10-26T00:25:59.839Z,11.64
2023-10-26T00:28:27.731Z,11.64
2023-10-26T00:30:55.784Z,11.64
2023-10-26T00:33:23.892Z,11.64
2023-10-26T00:35:54.300Z,11.62
2023-10-26T00:38:22.415Z,11.60
2023-10-26T00:40:50.363Z,11.59
2023-10-26T00:43:23.171Z,11.60
2023-10-26T00:45:53.400Z,11.62
2023-10-26T00:48:22.350Z,11.65
2023-10-26T00:50:50.836Z,11.64
2023-10-26T00:53:21.325Z,11.62
2023-10-26T00:55:52.462Z,11.58
2023-10-26T00:58:22.583Z,11.54
2023-10-26T01:00:50.889Z,11.52
2023-10-26T01:03:19.994Z,11.52
2023-10-26T01:05:48.760Z,11.53
2023-10-26T01:08:17.056Z,11.54
2023-10-26T01:10:46.469Z,11.55
2023-10-26T01:13:14.981Z,11.59
2023-10-26T01:15:43.199Z,11.61
2023-10-26T01:18:11.314Z,11.62
2023-10-26T01:20:42.476Z,11.61
2023-10-26T01:23:11.068Z,11.61
2023-10-26T01:25:39.115Z,11.63
2023-10-26T01:28:08.414Z,11.65
2023-10-26T01:30:36.369Z,11.66
2023-10-26T01:33:04.450Z,11.65
2023-10-26T01:35:42.043Z,11.67
2023-10-26T01:38:10.223Z,11.68
2023-10-26T01:40:38.298Z,11.68
2023-10-26T01:43:06.770Z,11.65
2023-10-26T01:45:34.979Z,11.62
2023-10-26T01:48:06.354Z,11.60
2023-10-26T01:50:34.538Z,11.59
2023-10-26T01:53:02.545Z,11.58
2023-10-26T01:55:30.614Z,11.57
2023-10-26T01:57:59.172Z,11.59
2023-10-26T02:00:27.300Z,11.62
2023-10-26T02:02:57.244Z,11.65
2023-10-26T02:05:26.458Z,11.67
2023-10-26T02:07:54.643Z,11.68
2023-10-26T02:10:25.104Z,11.68
2023-10-26T02:12:53.218Z,11.67
2023-10-26T02:15:21.499Z,11.64
2023-10-26T02:17:49.907Z,11.61
2023-10-26T02:20:18.201Z,11.60
2023-10-26T02:22:48.005Z,11.61
2023-10-26T02:25:16.664Z,11.61
2023-10-26T02:27:44.816Z,11.62
2023-10-26T02:30:13.578Z,11.61
2023-10-26T02:32:41.965Z,11.57
2023-10-26T02:35:10.285Z,11.52
2023-10-26T02:37:41.756Z,11.52
2023-10-26T02:40:10.830Z,11.55
2023-10-26T02:42:40.346Z,11.58
2023-10-26T02:45:10.035Z,11.60
2023-10-26T02:47:39.144Z,11.62
2023-10-26T02:50:07.951Z,11.64
2023-10-26T02:52:36.760Z,11.65
2023-10-26T02:55:06.651Z,11.67
2023-10-26T02:57:34.593Z,11.69
2023-10-26T03:00:02.761Z,11.70
2023-10-26T03:02:30.806Z,11.69
2023-10-26T03:04:58.802Z,11.66
2023-10-26T03:07:26.749Z,11.62
2023-10-26T03:09:54.831Z,11.61
2023-10-26T03:12:23.753Z,11.62
2023-10-26T03:14:51.668Z,11.60
2023-10-26T03:17:19.718Z,11.58
2023-10-26T03:19:47.662Z,11.59
2023-10-26T03:22:15.850Z,11.61
2023-10-26T03:24:44.050Z,11.63
2023-10-26T03:27:12.216Z,11.62
2023-10-26T03:29:40.436Z,11.62
2023-10-26T03:32:08.403Z,11.62
2023-10-26T03:34:36.465Z,11.61
2023-10-26T03:37:05.140Z,11.62
2023-10-26T03:39:33.293Z,11.61
2023-10-26T03:42:01.538Z,11.60
2023-10-26T03:44:29.759Z,11.59
2023-10-26T03:46:57.785Z,11.58
2023-10-26T03:49:26.362Z,11.58
2023-10-26T03:51:55.375Z,11.58
2023-10-26T03:54:23.541Z,11.57
2023-10-26T03:56:51.484Z,11.56
2023-10-26T03:59:19.464Z,11.53
2023-10-26T04:01:47.568Z,11.47
2023-10-26T04:04:15.559Z,11.42
2023-10-26T04:06:43.702Z,11.41
2023-10-26T04:09:11.837Z,11.41
2023-10-26T04:11:39.905Z,11.37
2023-10-26T04:14:08.818Z,11.32
2023-10-26T04:16:36.815Z,11.31
2023-10-26T04:19:04.899Z,11.32
2023-10-26T04:21:33.043Z,11.31
2023-10-26T04:24:01.302Z,11.32
2023-10-26T04:26:29.537Z,11.34
2023-10-26T04:28:57.718Z,11.36
2023-10-26T04:31:26.326Z,11.39
2023-10-26T04:33:54.436Z,11.42
2023-10-26T04:36:23.019Z,11.41
2023-10-26T04:38:51.684Z,11.36
2023-10-26T04:41:19.904Z,11.33
2023-10-26T04:43:47.893Z,11.29
2023-10-26T04:46:15.984Z,11.29
2023-10-26T04:48:44.215Z,11.30
2023-10-26T04:51:12.591Z,11.31
2023-10-26T04:53:40.634Z,11.32
2023-10-26T04:56:11.757Z,11.32
2023-10-26T04:58:39.922Z,11.32
2023-10-26T05:01:08.000Z,11.33
2023-10-26T05:03:36.174Z,11.31
2023-10-26T05:06:04.479Z,11.28
2023-10-26T05:08:32.647Z,11.22
2023-10-26T05:11:00.936Z,11.21
2023-10-26T05:13:29.567Z,11.21
2023-10-26T05:15:57.680Z,11.22
2023-10-26T05:18:25.853Z,11.24
2023-10-26T05:20:53.932Z,11.24
2023-10-26T05:23:21.973Z,11.25
2023-10-26T05:25:50.176Z,11.24
2023-10-26T05:28:18.396Z,11.21
2023-10-26T05:30:46.465Z,11.19
2023-10-26T05:33:16.695Z,11.18
2023-10-26T05:35:45.906Z,11.13
2023-10-26T05:38:16.041Z,11.10
2023-10-26T05:40:55.612Z,11.09
2023-10-26T05:43:24.600Z,11.12
2023-10-26T05:45:53.742Z,11.14
2023-10-26T05:48:24.565Z,11.16
2023-10-26T05:50:52.513Z,11.19
2023-10-26T05:53:20.732Z,11.24
2023-10-26T05:56:00.090Z,11.30
2023-10-26T05:58:28.605Z,11.33
2023-10-26T06:00:57.013Z,11.35
2023-10-26T06:03:25.435Z,11.34
2023-10-26T06:05:59.655Z,11.36
2023-10-26T06:08:28.164Z,11.37
2023-10-26T06:10:56.310Z,11.40
2023-10-26T06:13:24.223Z,11.43
2023-10-26T06:15:52.281Z,11.45
2023-10-26T06:18:20.931Z,11.43
2023-10-26T06:21:02.467Z,11.43
2023-10-26T06:23:30.690Z,11.44
2023-10-26T06:25:59.654Z,11.45
2023-10-26T06:28:28.685Z,11.47
2023-10-26T06:31:08.237Z,11.49
2023-10-26T06:33:36.133Z,11.55
2023-10-26T06:36:04.696Z,11.60
2023-10-26T06:38:32.779Z,11.65
2023-10-26T06:41:00.737Z,11.69
2023-10-26T06:43:30.530Z,11.72
2023-10-26T06:46:00.494Z,11.75
2023-10-26T06:48:28.753Z,11.76
2023-10-26T06:51:02.281Z,11.77
2023-10-26T06:53:30.701Z,11.78
2023-10-26T06:55:59.753Z,11.80
2023-10-26T06:58:28.915Z,11.84
2023-10-26T07:00:57.666Z,11.89
2023-10-26T07:03:26.028Z,11.96
2023-10-26T07:05:54.794Z,12.00
2023-10-26T07:08:22.971Z,12.05
2023-10-26T07:10:51.054Z,12.04
2023-10-26T07:13:19.768Z,12.06
2023-10-26T07:15:48.326Z,12.09
2023-10-26T07:18:19.504Z,12.14
2023-10-26T07:20:50.528Z,12.19
2023-10-26T07:23:19.586Z,12.24
2023-10-26T07:25:48.709Z,12.27
2023-10-26T07:28:18.116Z,12.28
2023-10-26T07:30:51.922Z,12.30
2023-10-26T07:33:20.800Z,12.34
2023-10-26T07:35:54.109Z,12.39
2023-10-26T07:38:35.654Z,12.45
2023-10-26T07:41:07.012Z,12.52
2023-10-26T07:43:36.220Z,12.57
2023-10-26T07:46:05.001Z,12.62
2023-10-26T07:48:33.259Z,12.68
2023-10-26T07:51:01.256Z,12.71
2023-10-26T07:53:32.458Z,12.76
2023-10-26T07:56:00.636Z,12.79
2023-10-26T07:58:31.635Z,12.83
2023-10-26T08:01:00.443Z,12.87
2023-10-26T08:03:29.267Z,12.93
2023-10-26T08:06:04.011Z,12.99
2023-10-26T08:08:32.091Z,13.08
2023-10-26T08:11:09.594Z,13.16
2023-10-26T08:13:37.609Z,13.26
2023-10-26T08:16:34.415Z,13.34
2023-10-26T08:18:54.512Z,13.41
2023-10-26T08:21:22.610Z,13.47
2023-10-26T08:23:50.765Z,13.53
2023-10-26T08:26:18.814Z,13.58
2023-10-26T08:28:47.098Z,13.62
2023-10-26T08:31:15.039Z,13.63
2023-10-26T08:33:43.274Z,13.64
2023-10-26T08:36:11.397Z,13.64
2023-10-26T08:38:39.392Z,13.66
2023-10-26T08:41:12.373Z,13.66
2023-10-26T08:43:40.891Z,13.69
2023-10-26T08:46:11.855Z,13.74
2023-10-26T08:48:42.463Z,13.78
2023-10-26T08:51:11.457Z,13.83
2023-10-26T08:53:41.204Z,13.90
2023-10-26T08:56:11.170Z,13.96
2023-10-26T08:58:39.648Z,14.00
2023-10-26T09:01:07.931Z,14.03
2023-10-26T09:03:36.448Z,14.05
2023-10-26T09:06:04.670Z,14.07
2023-10-26T09:08:32.788Z,14.11
2023-10-26T09:11:02.606Z,14.12
2023-10-26T09:13:30.921Z,14.13
2023-10-26T09:16:00.583Z,14.16
2023-10-26T09:18:29.138Z,14.19
2023-10-26T09:21:06.104Z,14.24
2023-10-26T09:23:36.624Z,14.25
2023-10-26T09:26:09.289Z,14.23
2023-10-26T09:28:57.401Z,14.25
2023-10-26T09:31:26.431Z,14.29
2023-10-26T09:33:54.541Z,14.33
2023-10-26T09:36:23.462Z,14.38
2023-10-26T09:38:52.122Z,14.42
2023-10-26T09:41:21.264Z,14.47
2023-10-26T09:43:49.543Z,14.52
2023-10-26T09:46:21.565Z,14.56
2023-10-26T09:48:50.562Z,14.59
2023-10-26T09:51:21.366Z,14.60
2023-10-26T09:53:50.232Z,14.62
2023-10-26T09:56:26.348Z,14.65
2023-10-26T09:58:54.994Z,14.70
2023-10-26T10:01:37.387Z,14.73
2023-10-26T10:04:06.880Z,14.75
2023-10-26T10:06:53.740Z,14.77
2023-10-26T10:09:26.483Z,14.78
2023-10-26T10:12:11.051Z,14.79
2023-10-26T10:15:36.256Z,14.80
2023-10-26T10:17:58.665Z,14.84
2023-10-26T10:20:28.755Z,14.89
2023-10-26T10:22:59.794Z,14.94
2023-10-26T10:25:51.216Z,14.99
2023-10-26T10:28:19.773Z,15.05
2023-10-26T10:31:00.617Z,15.10
2023-10-26T10:33:29.788Z,15.15
2023-10-26T10:36:09.515Z,15.19
2023-10-26T10:38:37.629Z,15.24
2023-10-26T10:41:13.369Z,15.29
2023-10-26T10:43:47.608Z,15.34
2023-10-26T10:46:17.612Z,15.40
2023-10-26T10:49:05.014Z,15.46
2023-10-26T10:51:43.482Z,15.49
2023-10-26T10:54:24.099Z,15.52
2023-10-26T10:56:58.656Z,15.54
2023-10-26T10:59:28.452Z,15.57
2023-10-26T11:02:10.910Z,15.60
2023-10-26T11:05:05.241Z,15.61
2023-10-26T11:07:37.957Z,15.65
2023-10-26T11:10:06.559Z,15.68
2023-10-26T11:12:35.030Z,15.71
2023-10-26T11:15:05.090Z,15.74
2023-10-26T11:17:33.432Z,15.77
2023-10-26T11:20:01.435Z,15.80
2023-10-26T11:22:29.862Z,15.83
2023-10-26T11:24:57.833Z,15.88
2023-10-26T11:27:26.035Z,15.91
2023-10-26T11:30:06.940Z,15.94
2023-10-26T11:32:35.568Z,15.97
2023-10-26T11:35:07.447Z,15.99
2023-10-26T11:37:37.620Z,16.01
2023-10-26T11:40:10.234Z,16.03
2023-10-26T11:42:50.717Z,16.05
2023-10-26T11:45:24.050Z,16.05
2023-10-26T11:47:54.808Z,16.05
2023-10-26T11:50:26.827Z,16.06
2023-10-26T11:52:57.198Z,16.05
2023-10-26T11:55:26.426Z,16.05
2023-10-26T11:57:58.301Z,16.05
2023-10-26T12:00:27.772Z,16.04
2023-10-26T12:02:57.571Z,16.02
2023-10-26T12:05:26.678Z,15.98
2023-10-26T12:07:55.258Z,15.96
2023-10-26T12:10:24.770Z,15.95
2023-10-26T12:12:54.314Z,15.96
2023-10-26T12:15:22.583Z,15.98
2023-10-26T12:17:50.856Z,15.99
2023-10-26T12:20:19.458Z,16.00
2023-10-26T12:22:49.865Z,16.03
2023-10-26T12:25:18.075Z,16.06
2023-10-26T12:28:20.507Z,16.07
2023-10-26T12:30:37.214Z,16.08
2023-10-26T12:33:05.492Z,16.10
2023-10-26T12:35:33.574Z,16.09
2023-10-26T12:38:01.497Z,16.08
2023-10-26T12:40:29.568Z,16.08
2023-10-26T12:42:59.371Z,16.09
2023-10-26T12:45:27.493Z,16.10
2023-10-26T12:47:55.675Z,16.10
2023-10-26T12:50:23.696Z,16.11
2023-10-26T12:52:51.735Z,16.13
2023-10-26T12:55:22.137Z,16.15
2023-10-26T12:57:51.025Z,16.15
2023-10-26T13:00:20.187Z,16.14
2023-10-26T13:02:48.236Z,16.15
2023-10-26T13:05:16.471Z,16.15
2023-10-26T13:07:44.409Z,16.15
2023-10-26T13:10:12.409Z,16.16
2023-10-26T13:12:40.792Z,16.17
2023-10-26T13:15:08.999Z,16.17
2023-10-26T13:17:36.954Z,16.18
2023-10-26T13:20:05.675Z,16.19
2023-10-26T13:22:33.941Z,16.20
2023-10-26T13:25:01.990Z,16.20
2023-10-26T13:27:29.997Z,16.19
2023-10-26T13:29:58.105Z,16.20
2023-10-26T13:32:28.017Z,16.21
2023-10-26T13:34:56.200Z,16.23
2023-10-26T13:37:24.380Z,16.25
2023-10-26T13:39:52.483Z,16.27
2023-10-26T13:42:20.510Z,16.26
2023-10-26T13:44:48.673Z,16.26
2023-10-26T13:47:16.620Z,16.27
2023-10-26T13:49:44.856Z,16.28
2023-10-26T13:52:13.003Z,16.29
2023-10-26T13:54:41.110Z,16.30
2023-10-26T13:57:09.767Z,16.31
2023-10-26T13:59:38.878Z,16.32
2023-10-26T14:02:07.444Z,16.31
2023-10-26T14:04:37.327Z,16.31
2023-10-26T14:07:06.476Z,16.29
2023-10-26T14:09:34.679Z,16.27
2023-10-26T14:12:02.943Z,16.26
2023-10-26T14:14:31.417Z,16.24
2023-10-26T14:16:59.558Z,16.22
2023-10-26T14:19:28.171Z,16.20
2023-10-26T14:21:56.425Z,16.19
2023-10-26T14:24:24.363Z,16.17
2023-10-26T14:26:52.399Z,16.16
2023-10-26T14:29:20.357Z,16.14
2023-10-26T14:31:48.450Z,16.13
2023-10-26T14:34:16.633Z,16.09
2023-10-26T14:36:44.479Z,16.07
2023-10-26T14:39:12.507Z,16.02
2023-10-26T14:41:42.081Z,15.99
2023-10-26T14:44:10.363Z,15.98
2023-10-26T14:46:38.419Z,15.96
2023-10-26T14:49:06.859Z,15.94
2023-10-26T14:51:35.692Z,15.93
2023-10-26T14:54:03.831Z,15.92
2023-10-26T14:56:31.847Z,15.90
2023-10-26T14:58:59.812Z,15.87
2023-10-26T15:01:28.157Z,15.86
2023-10-26T15:03:56.879Z,15.82
2023-10-26T15:06:26.345Z,15.78
2023-10-26T15:08:54.942Z,15.72
2023-10-26T15:11:25.265Z,15.71
2023-10-26T15:13:56.269Z,15.69
2023-10-26T15:16:24.374Z,15.68
2023-10-26T15:18:52.369Z,15.66
2023-10-26T15:21:20.460Z,15.62
2023-10-26T15:23:48.522Z,15.60
2023-10-26T15:26:16.620Z,15.58
2023-10-26T15:28:44.650Z,15.58
2023-10-26T15:31:12.973Z,15.57
2023-10-26T15:33:41.123Z,15.55
2023-10-26T15:36:09.253Z,15.53
2023-10-26T15:38:42.255Z,15.52
2023-10-26T15:41:11.635Z,15.51
2023-10-26T15:43:39.772Z,15.51
2023-10-26T15:46:07.797Z,15.51
2023-10-26T15:49:33.793Z,15.48
2023-10-26T15:51:24.126Z,15.46
2023-10-26T15:53:52.020Z,15.40
2023-10-26T15:56:20.230Z,15.35
2023-10-26T15:58:52.209Z,15.29
2023-10-26T16:01:20.608Z,15.20
2023-10-26T16:03:48.697Z,15.13
2023-10-26T16:06:20.104Z,15.09
2023-10-26T16:08:49.590Z,15.08
2023-10-26T16:11:17.586Z,15.07
2023-10-26T16:13:48.910Z,15.07
2023-10-26T16:16:17.020Z,15.06
2023-10-26T16:18:47.932Z,15.07
2023-10-26T16:21:16.847Z,15.05
2023-10-26T16:23:44.943Z,15.04
2023-10-26T16:26:12.939Z,15.04
2023-10-26T16:28:41.089Z,15.05
2023-10-26T16:31:09.124Z,15.05
2023-10-26T16:33:38.029Z,15.05
2023-10-26T16:36:06.603Z,15.05
2023-10-26T16:38:34.469Z,15.06
2023-10-26T16:41:02.338Z,15.05
2023-10-26T16:43:30.331Z,15.00
2023-10-26T16:46:01.916Z,14.95
2023-10-26T16:48:30.054Z,14.93
2023-10-26T16:50:58.007Z,14.92
2023-10-26T16:53:31.364Z,14.91
2023-10-26T16:56:02.091Z,14.91
2023-10-26T16:58:32.920Z,14.92
2023-10-26T17:01:04.476Z,14.90
2023-10-26T17:03:32.595Z,14.90
2023-10-26T17:06:00.682Z,14.92
2023-10-26T17:08:32.912Z,14.93
2023-10-26T17:11:00.977Z,14.95
2023-10-26T17:13:29.113Z,14.95
2023-10-26T17:15:57.131Z,14.96
2023-10-26T17:18:25.176Z,14.95
2023-10-26T17:20:59.304Z,14.93
2023-10-26T17:23:27.393Z,14.92
2023-10-26T17:25:55.286Z,14.90
2023-10-26T17:28:23.291Z,14.87
2023-10-26T17:30:51.271Z,14.81
2023-10-26T17:33:21.225Z,14.77
2023-10-26T17:35:52.414Z,14.72
2023-10-26T17:38:20.401Z,14.68
2023-10-26T17:40:49.101Z,14.61
2023-10-26T17:43:20.487Z,14.55
2023-10-26T17:45:57.579Z,14.47
2023-10-26T17:48:33.874Z,14.39
2023-10-26T17:51:04.782Z,14.34
2023-10-26T17:53:35.321Z,14.30
2023-10-26T17:56:03.925Z,14.27
2023-10-26T17:58:31.821Z,14.25
2023-10-26T18:01:08.884Z,14.22
2023-10-26T18:03:43.223Z,14.20
2023-10-26T18:06:16.600Z,14.18
2023-10-26T18:08:44.622Z,14.16
2023-10-26T18:11:12.677Z,14.14
2023-10-26T18:13:40.648Z,14.13
2023-10-26T18:16:13.670Z,14.14
2023-10-26T18:18:45.809Z,14.12
2023-10-26T18:21:14.553Z,14.11
2023-10-26T18:23:45.421Z,14.07
2023-10-26T18:26:15.339Z,14.01
2023-10-26T18:28:47.575Z,13.93
2023-10-26T18:31:18.759Z,13.85
2023-10-26T18:33:53.065Z,13.78
2023-10-26T18:36:29.758Z,13.75
2023-10-26T18:39:12.712Z,13.70
2023-10-26T18:41:45.597Z,13.68
2023-10-26T18:44:16.645Z,13.67
2023-10-26T18:46:47.165Z,13.68
2023-10-26T18:49:15.305Z,13.68
2023-10-26T18:51:43.231Z,13.66
2023-10-26T18:54:11.212Z,13.64
2023-10-26T18:56:39.139Z,13.61
2023-10-26T18:59:08.122Z,13.59
2023-10-26T19:01:36.085Z,13.56
2023-10-26T19:04:04.254Z,13.53
2023-10-26T19:06:32.452Z,13.50
2023-10-26T19:09:00.401Z,13.44
2023-10-26T19:11:29.712Z,13.38
2023-10-26T19:13:57.990Z,13.32
2023-10-26T19:16:26.340Z,13.24
2023-10-26T19:18:54.437Z,13.18
2023-10-26T19:21:24.225Z,13.10
2023-10-26T19:23:52.260Z,13.01
2023-10-26T19:26:20.486Z,12.97
2023-10-26T19:28:48.489Z,12.92
2023-10-26T19:31:16.962Z,12.85
2023-10-26T19:33:47.930Z,12.79
2023-10-26T19:36:18.626Z,12.76
2023-10-26T19:38:46.595Z,12.73
2023-10-26T19:41:17.431Z,12.67
2023-10-26T19:43:45.529Z,12.61
2023-10-26T19:46:14.293Z,12.55
2023-10-26T19:48:42.506Z,12.50
2023-10-26T19:51:10.477Z,12.47
2023-10-26T19:53:38.595Z,12.44
2023-10-26T19:56:06.914Z,12.43
2023-10-26T19:58:34.792Z,12.43
2023-10-26T20:01:04.662Z,12.44
2023-10-26T20:03:33.097Z,12.47
2023-10-26T20:06:02.365Z,12.50
2023-10-26T20:08:31.969Z,12.53
2023-10-26T20:11:00.695Z,12.55
2023-10-26T20:13:28.810Z,12.55
2023-10-26T20:15:57.467Z,12.53
2023-10-26T20:18:25.390Z,12.47
2023-10-26T20:20:53.926Z,12.44
2023-10-26T20:23:21.968Z,12.41
2023-10-26T20:25:50.451Z,12.42
2023-10-26T20:28:18.805Z,12.40
2023-10-26T20:30:46.790Z,12.34
2023-10-26T20:33:14.785Z,12.27
2023-10-26T20:35:48.643Z,12.24
2023-10-26T20:38:16.738Z,12.19
2023-10-26T20:40:44.691Z,12.14
2023-10-26T20:43:13.173Z,12.11
2023-10-26T20:45:47.547Z,12.07
2023-10-26T20:48:15.541Z,12.06
2023-10-26T20:50:43.574Z,12.07
2023-10-26T20:53:11.690Z,12.08
2023-10-26T20:55:39.728Z,12.09
2023-10-26T20:58:07.847Z,12.10
2023-10-26T21:00:35.960Z,12.10
2023-10-26T21:03:04.090Z,12.08
2023-10-26T21:05:32.496Z,12.02
2023-10-26T21:08:00.505Z,11.98
2023-10-26T21:10:28.506Z,11.91
2023-10-26T21:12:56.681Z,11.84
2023-10-26T21:15:24.917Z,11.81
2023-10-26T21:17:53.033Z,11.78
2023-10-26T21:20:21.440Z,11.76
2023-10-26T21:22:49.416Z,11.73
2023-10-26T21:25:17.743Z,11.74
2023-10-26T21:27:45.868Z,11.75
2023-10-26T21:30:16.467Z,11.74
2023-10-26T21:32:44.600Z,11.74
2023-10-26T21:35:12.512Z,11.73
2023-10-26T21:37:40.478Z,11.69
2023-10-26T21:40:09.389Z,11.68
2023-10-26T21:42:37.539Z,11.67
2023-10-26T21:45:08.109Z,11.68
2023-10-26T21:47:36.319Z,11.66
2023-10-26T21:50:05.184Z,11.62
2023-10-26T21:52:33.339Z,11.57
2023-10-26T21:55:01.243Z,11.56
2023-10-26T21:57:29.153Z,11.53
2023-10-26T21:59:57.171Z,11.51
2023-10-26T22:02:26.113Z,11.49
2023-10-26T22:04:54.185Z,11.47
2023-10-26T22:07:22.320Z,11.42
2023-10-26T22:09:55.486Z,11.39
2023-10-26T22:12:23.998Z,11.38
2023-10-26T22:14:52.064Z,11.36
2023-10-26T22:17:20.180Z,11.36
2023-10-26T22:19:51.613Z,11.33
2023-10-26T22:22:19.895Z,11.26
2023-10-26T22:24:48.190Z,11.18
2023-10-26T22:27:16.351Z,11.14
2023-10-26T22:29:44.535Z,11.13
2023-10-26T22:32:12.968Z,11.15
2023-10-26T22:34:41.403Z,11.17
2023-10-26T22:37:09.436Z,11.19
2023-10-26T22:39:37.418Z,11.22
2023-10-26T22:42:05.599Z,11.25
2023-10-26T22:44:33.647Z,11.24
2023-10-26T22:47:01.606Z,11.24
2023-10-26T22:49:29.574Z,11.24
2023-10-26T22:51:57.647Z,11.28
2023-10-26T22:54:25.602Z,11.31
2023-10-26T22:56:53.526Z,11.33
2023-10-26T22:59:21.882Z,11.36
2023-10-26T23:01:51.181Z,11.39
2023-10-26T23:04:19.500Z,11.42
2023-10-26T23:06:48.122Z,11.44
2023-10-26T23:09:17.242Z,11.46
2023-10-26T23:11:45.364Z,11.46
2023-10-26T23:14:13.416Z,11.47
2023-10-26T23:16:41.371Z,11.51
2023-10-26T23:19:09.479Z,11.56
2023-10-26T23:21:37.565Z,11.60
2023-10-26T23:24:06.267Z,11.59
2023-10-26T23:26:35.320Z,11.57
2023-10-26T23:29:04.788Z,11.55
2023-10-26T23:31:34.213Z,11.50
2023-10-26T23:34:02.269Z,11.50
2023-10-26T23:36:30.300Z,11.52
2023-10-26T23:38:58.372Z,11.52
2023-10-26T23:41:26.312Z,11.55
2023-10-26T23:43:54.185Z,11.59
2023-10-26T23:46:22.176Z,11.62
2023-10-26T23:48:50.199Z,11.64
2023-10-26T23:51:19.183Z,11.66
2023-10-26T23:53:47.260Z,11.67
2023-10-26T23:56:15.406Z,11.69
2023-10-26T23:58:43.856Z,11.71
